Time;durP1;ratioP1;P1;durP2;ratioP2;P2;SDS_P1;SDS_P2;PMS_P1;PMS_P2;Temp;Humidity;BMP_temperature;BMP_pressure;BME280_temperature;BME280_humidity;BME280_pressure;Samples;Min_cycle;Max_cycle;Signal;HPM_P1;HPM_P2
2023/06/04 00:02:17;;;;;;;58.60;3.80;;;;;;;;;;5054474;28;20482;-67
2023/06/04 00:04:44;;;;;;;58.60;3.10;;;;;;;;;;5054475;28;20491;-68
2023/06/04 00:07:11;;;;;;;58.10;3.60;;;;;;;;;;5054528;28;20857;-68
2023/06/04 00:09:38;;;;;;;57.33;2.50;;;;;;;;;;5053604;28;20452;-68
2023/06/04 00:12:05;;;;;;;57.50;2.80;;;;;;;;;;5054473;28;20474;-67
2023/06/04 00:14:34;;;;;;;57.93;3.27;;;;;;;;;;5054403;28;20444;-67
2023/06/04 00:17:01;;;;;;;59.03;3.47;;;;;;;;;;5054172;28;20452;-68
2023/06/04 00:19:28;;;;;;;57.77;3.00;;;;;;;;;;5053810;28;20460;-67
2023/06/04 00:21:55;;;;;;;57.90;3.87;;;;;;;;;;5054307;28;20467;-68
2023/06/04 00:24:22;;;;;;;57.90;2.67;;;;;;;;;;5053831;28;20456;-68
2023/06/04 00:26:49;;;;;;;57.87;2.80;;;;;;;;;;5054032;28;20495;-68
2023/06/04 00:29:16;;;;;;;57.67;3.17;;;;;;;;;;5053565;28;20479;-67
2023/06/04 00:31:45;;;;;;;57.53;3.00;;;;;;;;;;5053833;28;20988;-68
2023/06/04 00:34:12;;;;;;;60.07;3.50;;;;;;;;;;5053763;28;20448;-68
2023/06/04 00:36:40;;;;;;;57.70;2.90;;;;;;;;;;5053614;28;20573;-68
2023/06/04 00:39:07;;;;;;;58.47;2.90;;;;;;;;;;5053469;28;20456;-67
2023/06/04 00:41:34;;;;;;;57.47;2.50;;;;;;;;;;5053596;28;20611;-68
2023/06/04 00:44:02;;;;;;;58.10;2.70;;;;;;;;;;5053965;28;20452;-67
2023/06/04 00:46:31;;;;;;;57.43;2.40;;;;;;;;;;5053408;28;20961;-67
2023/06/04 00:48:59;;;;;;;57.83;3.07;;;;;;;;;;5053066;28;20860;-67
2023/06/04 00:51:26;;;;;;;58.27;3.47;;;;;;;;;;5053515;28;20532;-68
2023/06/04 00:53:54;;;;;;;57.47;2.50;;;;;;;;;;5053424;28;20452;-68
2023/06/04 00:56:21;;;;;;;57.57;2.80;;;;;;;;;;5053315;28;20506;-67
2023/06/04 00:58:48;;;;;;;57.27;2.50;;;;;;;;;;5051862;28;20826;-68
2023/06/04 01:01:21;;;;;;;57.37;2.67;;;;;;;;;;5053975;28;20816;-67
2023/06/04 01:03:50;;;;;;;61.20;3.47;;;;;;;;;;5053423;28;20441;-67
2023/06/04 01:06:22;;;;;;;58.07;3.63;;;;;;;;;;5053524;28;20487;-68
2023/06/04 01:08:54;;;;;;;57.57;2.80;;;;;;;;;;5052584;28;20441;-67
2023/06/04 01:11:31;;;;;;;58.67;3.47;;;;;;;;;;5053265;28;20812;-67
2023/06/04 01:13:58;;;;;;;57.17;2.60;;;;;;;;;;5053488;28;20433;-67
2023/06/04 01:16:28;;;;;;;57.63;2.80;;;;;;;;;;5052782;28;20445;-67
2023/06/04 01:18:57;;;;;;;57.93;3.37;;;;;;;;;;5052567;28;20452;-67
2023/06/04 01:21:28;;;;;;;57.70;3.03;;;;;;;;;;5053118;28;20448;-67
2023/06/04 01:23:59;;;;;;;57.57;2.60;;;;;;;;;;5053205;28;20437;-68
2023/06/04 01:26:26;;;;;;;57.40;2.90;;;;;;;;;;5052723;28;20468;-67
2023/06/04 01:28:54;;;;;;;57.47;2.70;;;;;;;;;;5051973;28;20459;-68
2023/06/04 01:31:22;;;;;;;57.37;2.50;;;;;;;;;;5052998;28;20820;-68
2023/06/04 01:33:50;;;;;;;57.80;2.90;;;;;;;;;;5052868;28;20510;-68
2023/06/04 01:36:17;;;;;;;57.90;3.00;;;;;;;;;;5052838;28;20447;-67
2023/06/04 01:38:46;;;;;;;57.73;2.67;;;;;;;;;;5052169;28;20452;-67
2023/06/04 01:41:13;;;;;;;58.87;3.40;;;;;;;;;;5049885;28;20460;-67
2023/06/04 01:43:40;;;;;;;57.77;2.80;;;;;;;;;;5052207;28;20473;-67
2023/06/04 01:46:07;;;;;;;57.47;2.50;;;;;;;;;;5052686;28;20480;-68
2023/06/04 01:48:34;;;;;;;58.47;3.60;;;;;;;;;;5051812;28;20460;-67
2023/06/04 01:51:02;;;;;;;57.70;3.33;;;;;;;;;;5052464;28;20467;-67
2023/06/04 01:53:29;;;;;;;57.57;2.47;;;;;;;;;;5052352;28;20468;-67
2023/06/04 01:55:58;;;;;;;58.00;3.50;;;;;;;;;;5052284;28;20460;-67
2023/06/04 01:58:26;;;;;;;58.47;3.43;;;;;;;;;;5052400;28;20586;-67
2023/06/04 02:00:54;;;;;;;57.43;2.70;;;;;;;;;;5051562;28;20456;-67
2023/06/04 02:03:22;;;;;;;57.47;2.30;;;;;;;;;;5052377;28;20504;-67
2023/06/04 02:05:49;;;;;;;57.50;3.10;;;;;;;;;;5052002;28;20522;-67
2023/06/04 02:08:18;;;;;;;57.57;2.60;;;;;;;;;;5052170;28;20816;-67
2023/06/04 02:10:45;;;;;;;57.97;3.13;;;;;;;;;;5051475;28;20455;-67
2023/06/04 02:13:14;;;;;;;57.70;2.90;;;;;;;;;;5052356;28;20480;-68
2023/06/04 02:15:42;;;;;;;57.50;2.50;;;;;;;;;;5051889;28;20459;-67
2023/06/04 02:18:16;;;;;;;57.50;2.50;;;;;;;;;;5052135;28;20806;-67
2023/06/04 02:20:44;;;;;;;57.70;3.07;;;;;;;;;;5051079;28;20832;-68
2023/06/04 02:23:11;;;;;;;57.77;2.90;;;;;;;;;;5052078;28;20534;-67
2023/06/04 02:25:38;;;;;;;57.37;2.50;;;;;;;;;;5051862;28;20451;-67
2023/06/04 02:28:05;;;;;;;57.70;2.87;;;;;;;;;;5051951;28;20448;-67
2023/06/04 02:30:34;;;;;;;57.40;2.40;;;;;;;;;;5050913;28;20444;-67
2023/06/04 02:33:01;;;;;;;57.63;3.00;;;;;;;;;;5051969;28;20486;-67
2023/06/04 02:35:28;;;;;;;57.50;2.40;;;;;;;;;;5051613;28;20447;-67
2023/06/04 02:37:58;;;;;;;58.00;2.47;;;;;;;;;;5051414;28;20444;-67
2023/06/04 02:40:25;;;;;;;57.27;2.47;;;;;;;;;;5051066;28;20493;-67
2023/06/04 02:42:53;;;;;;;57.40;2.60;;;;;;;;;;5051641;28;20468;-67
2023/06/04 02:45:20;;;;;;;57.13;2.63;;;;;;;;;;5051877;28;20440;-67
2023/06/04 02:47:49;;;;;;;57.37;2.60;;;;;;;;;;5051191;28;20804;-67
2023/06/04 02:50:16;;;;;;;57.53;2.70;;;;;;;;;;5050507;28;20453;-67
2023/06/04 02:52:43;;;;;;;58.50;3.30;;;;;;;;;;5051524;28;20460;-67
2023/06/04 02:55:11;;;;;;;58.47;2.90;;;;;;;;;;5051564;28;20475;-68
2023/06/04 02:57:39;;;;;;;57.70;2.53;;;;;;;;;;5051077;28;20837;-67
2023/06/04 03:00:11;;;;;;;57.37;2.40;;;;;;;;;;5050785;28;20470;-67
2023/06/04 03:02:39;;;;;;;57.53;2.50;;;;;;;;;;5051473;28;20507;-67
2023/06/04 03:05:07;;;;;;;57.30;2.30;;;;;;;;;;5051369;28;20444;-67
2023/06/04 03:07:34;;;;;;;57.90;3.33;;;;;;;;;;5050826;28;21016;-67
2023/06/04 03:10:02;;;;;;;58.40;3.73;;;;;;;;;;5050386;28;20937;-67
2023/06/04 03:12:29;;;;;;;57.30;2.13;;;;;;;;;;5051334;28;20551;-67
2023/06/04 03:14:56;;;;;;;57.57;2.37;;;;;;;;;;5051339;28;20455;-67
2023/06/04 03:17:23;;;;;;;58.23;3.77;;;;;;;;;;5051154;28;20451;-67
2023/06/04 03:19:50;;;;;;;57.17;2.30;;;;;;;;;;5050211;28;20991;-67
2023/06/04 03:22:19;;;;;;;57.40;2.13;;;;;;;;;;5050786;28;20460;-67
2023/06/04 03:24:46;;;;;;;57.53;2.50;;;;;;;;;;5050875;28;20956;-67
2023/06/04 03:27:13;;;;;;;57.80;3.10;;;;;;;;;;5050998;28;20480;-67
2023/06/04 03:32:45;;;;;;;57.47;2.90;;;;;;;;;;5048059;28;20415;-67
2023/06/04 03:35:12;;;;;;;57.30;2.30;;;;;;;;;;5051047;28;20455;-67
2023/06/04 03:37:40;;;;;;;58.20;2.90;;;;;;;;;;5050590;28;20454;-67
2023/06/04 03:40:08;;;;;;;57.57;2.47;;;;;;;;;;5050419;28;20823;-67
2023/06/04 03:42:35;;;;;;;58.00;3.10;;;;;;;;;;5050827;28;20476;-67
2023/06/04 03:45:02;;;;;;;57.53;2.53;;;;;;;;;;5050652;28;20448;-67
2023/06/04 03:47:30;;;;;;;57.47;2.47;;;;;;;;;;5050708;28;20480;-67
2023/06/04 03:49:57;;;;;;;57.23;2.40;;;;;;;;;;5050067;28;20858;-67
2023/06/04 03:52:24;;;;;;;57.47;2.80;;;;;;;;;;5050401;28;20468;-67
2023/06/04 03:54:53;;;;;;;57.23;2.33;;;;;;;;;;5050659;28;20444;-67
2023/06/04 03:57:20;;;;;;;57.23;2.40;;;;;;;;;;5050640;28;20833;-67
2023/06/04 03:59:47;;;;;;;57.80;3.10;;;;;;;;;;5050171;28;20456;-67
2023/06/04 04:02:14;;;;;;;57.90;2.90;;;;;;;;;;5050762;28;20920;-67
2023/06/04 04:04:41;;;;;;;57.90;2.90;;;;;;;;;;5050577;28;20455;-67
2023/06/04 04:07:08;;;;;;;58.10;3.30;;;;;;;;;;5050682;28;20484;-67
2023/06/04 04:09:36;;;;;;;58.07;3.90;;;;;;;;;;5049995;28;20474;-67
2023/06/04 04:12:05;;;;;;;58.43;2.87;;;;;;;;;;5050321;28;20989;-67
2023/06/04 04:14:32;;;;;;;57.63;2.67;;;;;;;;;;5050776;28;20448;-67
2023/06/04 04:16:59;;;;;;;59.80;3.50;;;;;;;;;;5050736;28;20448;-67
2023/06/04 04:19:28;;;;;;;57.40;2.50;;;;;;;;;;5049716;28;20463;-67
2023/06/04 04:21:55;;;;;;;57.70;2.60;;;;;;;;;;5050420;28;20476;-67
2023/06/04 04:24:26;;;;;;;57.70;2.33;;;;;;;;;;5050562;28;20444;-67
2023/06/04 04:26:53;;;;;;;57.57;2.67;;;;;;;;;;5050364;28;20480;-67
2023/06/04 04:32:26;;;;;;;57.37;2.90;;;;;;;;;;5046620;28;20462;-67
2023/06/04 04:34:54;;;;;;;57.17;2.30;;;;;;;;;;5052969;28;20452;-67
2023/06/04 04:37:22;;;;;;;57.33;2.27;;;;;;;;;;5053914;28;20452;-67
2023/06/04 04:39:51;;;;;;;57.40;2.73;;;;;;;;;;5053291;28;20854;-67
2023/06/04 04:42:18;;;;;;;57.27;2.60;;;;;;;;;;5053607;28;20476;-67
2023/06/04 04:44:47;;;;;;;57.90;2.60;;;;;;;;;;5053985;28;20444;-67
2023/06/04 04:47:14;;;;;;;57.27;2.47;;;;;;;;;;5053709;28;20491;-68
2023/06/04 04:49:43;;;;;;;57.37;2.40;;;;;;;;;;5053177;28;20829;-67
2023/06/04 04:52:10;;;;;;;57.30;2.93;;;;;;;;;;5053382;28;20468;-67
2023/06/04 04:54:37;;;;;;;59.87;5.20;;;;;;;;;;5053595;28;20825;-67
2023/06/04 04:57:04;;;;;;;57.70;2.80;;;;;;;;;;5053094;28;20464;-68
2023/06/04 04:59:31;;;;;;;57.27;2.27;;;;;;;;;;5052947;28;20456;-67
2023/06/04 05:01:58;;;;;;;57.27;2.63;;;;;;;;;;5053497;28;20464;-68
2023/06/04 05:04:25;;;;;;;57.07;2.33;;;;;;;;;;5053472;28;20451;-68
2023/06/04 05:06:54;;;;;;;57.30;2.77;;;;;;;;;;5053415;28;20480;-68
2023/06/04 05:09:21;;;;;;;57.30;2.60;;;;;;;;;;5052482;28;20452;-67
2023/06/04 05:11:48;;;;;;;57.60;3.20;;;;;;;;;;5053080;28;20567;-67
2023/06/04 05:14:15;;;;;;;58.40;3.30;;;;;;;;;;5053417;28;20462;-68
2023/06/04 05:16:44;;;;;;;57.60;3.10;;;;;;;;;;5053345;28;20468;-67
2023/06/04 05:19:11;;;;;;;57.70;3.30;;;;;;;;;;5052318;28;20458;-68
2023/06/04 05:21:39;;;;;;;57.47;3.00;;;;;;;;;;5053606;28;20817;-67
2023/06/04 05:24:08;;;;;;;57.60;2.90;;;;;;;;;;5052912;28;20448;-67
2023/06/04 05:26:35;;;;;;;57.30;2.40;;;;;;;;;;5053070;28;20444;-67
2023/06/04 05:29:04;;;;;;;57.57;3.80;;;;;;;;;;5052452;28;20459;-67
2023/06/04 05:31:33;;;;;;;58.77;3.03;;;;;;;;;;5052877;28;20453;-68
2023/06/04 05:34:01;;;;;;;57.17;2.77;;;;;;;;;;5052896;28;20463;-68
2023/06/04 05:36:28;;;;;;;57.20;2.60;;;;;;;;;;5052703;28;20849;-68
2023/06/04 05:38:57;;;;;;;57.20;2.50;;;;;;;;;;5052405;28;20444;-68
2023/06/04 05:41:25;;;;;;;57.27;2.60;;;;;;;;;;5052654;28;20483;-67
2023/06/04 05:43:53;;;;;;;57.17;2.60;;;;;;;;;;5052906;28;20456;-67
2023/06/04 05:46:21;;;;;;;57.30;2.30;;;;;;;;;;5052045;28;21055;-68
2023/06/04 05:48:48;;;;;;;57.10;2.50;;;;;;;;;;5052032;28;20550;-67
2023/06/04 05:51:15;;;;;;;57.23;2.57;;;;;;;;;;5052723;28;20450;-67
2023/06/04 05:53:43;;;;;;;57.37;2.80;;;;;;;;;;5052628;28;20483;-68
2023/06/04 05:56:10;;;;;;;57.10;2.67;;;;;;;;;;5052364;28;20491;-67
2023/06/04 05:58:38;;;;;;;58.30;3.20;;;;;;;;;;5051779;28;20531;-67
2023/06/04 06:01:06;;;;;;;57.37;2.60;;;;;;;;;;5052536;28;20452;-68
2023/06/04 06:03:33;;;;;;;57.27;2.27;;;;;;;;;;5052052;28;20852;-68
2023/06/04 06:06:01;;;;;;;57.17;2.40;;;;;;;;;;5052214;28;20543;-67
2023/06/04 06:08:28;;;;;;;61.20;2.83;;;;;;;;;;5052177;28;20495;-68
2023/06/04 06:10:55;;;;;;;57.03;2.20;;;;;;;;;;5051651;28;20449;-67
2023/06/04 06:13:22;;;;;;;57.07;2.30;;;;;;;;;;5052020;28;20468;-68
2023/06/04 06:15:52;;;;;;;57.00;2.30;;;;;;;;;;5051859;28;20804;-68
2023/06/04 06:18:20;;;;;;;56.97;2.30;;;;;;;;;;5051739;28;20480;-67
2023/06/04 06:20:47;;;;;;;56.87;2.17;;;;;;;;;;5051301;28;20467;-68
2023/06/04 06:23:15;;;;;;;56.97;2.20;;;;;;;;;;5052149;28;20476;-68
2023/06/04 06:25:45;;;;;;;57.27;2.43;;;;;;;;;;5051799;28;20875;-68
2023/06/04 06:28:12;;;;;;;57.20;2.97;;;;;;;;;;5051799;28;20484;-68
2023/06/04 06:30:39;;;;;;;57.33;2.60;;;;;;;;;;5051214;28;20456;-68
2023/06/04 06:33:08;;;;;;;57.10;2.40;;;;;;;;;;5051541;28;20469;-68
2023/06/04 06:35:35;;;;;;;57.77;2.60;;;;;;;;;;5051750;28;20532;-68
2023/06/04 06:38:02;;;;;;;57.00;2.20;;;;;;;;;;5051984;28;20444;-68
2023/06/04 06:40:30;;;;;;;58.07;3.17;;;;;;;;;;5050847;28;20463;-68
2023/06/04 06:42:57;;;;;;;56.97;2.10;;;;;;;;;;5051777;28;20472;-68
2023/06/04 06:45:24;;;;;;;57.07;2.30;;;;;;;;;;5051295;28;21014;-68
2023/06/04 06:47:51;;;;;;;58.33;3.27;;;;;;;;;;5051692;28;20495;-68
2023/06/04 06:50:20;;;;;;;57.67;2.77;;;;;;;;;;5050673;28;20456;-68
2023/06/04 06:52:47;;;;;;;57.50;2.87;;;;;;;;;;5051602;28;20475;-68
2023/06/04 06:55:14;;;;;;;57.17;2.57;;;;;;;;;;5051538;28;20832;-66
2023/06/04 06:57:41;;;;;;;56.93;2.53;;;;;;;;;;5050366;28;20456;-66
2023/06/04 07:00:08;;;;;;;57.50;2.57;;;;;;;;;;5050364;28;20515;-66
2023/06/04 07:02:36;;;;;;;56.83;2.27;;;;;;;;;;5051007;28;20464;-66
2023/06/04 07:05:03;;;;;;;57.70;2.90;;;;;;;;;;5051395;28;20448;-66
2023/06/04 07:07:31;;;;;;;57.27;2.83;;;;;;;;;;5051268;28;20480;-66
2023/06/04 07:09:58;;;;;;;58.57;3.50;;;;;;;;;;5050741;28;20452;-66
2023/06/04 07:12:25;;;;;;;57.23;2.27;;;;;;;;;;5050980;28;20475;-66
2023/06/04 07:14:53;;;;;;;57.07;2.20;;;;;;;;;;5051205;28;20458;-66
2023/06/04 07:17:20;;;;;;;57.10;2.20;;;;;;;;;;5051248;28;20805;-66
2023/06/04 07:19:47;;;;;;;57.70;2.70;;;;;;;;;;5050480;28;20474;-66
2023/06/04 07:22:15;;;;;;;57.63;3.03;;;;;;;;;;5051190;28;20479;-66
2023/06/04 07:24:44;;;;;;;57.07;2.53;;;;;;;;;;5051001;28;20498;-66
2023/06/04 07:27:12;;;;;;;57.27;2.50;;;;;;;;;;5050831;28;20777;-66
2023/06/04 07:29:39;;;;;;;57.50;2.50;;;;;;;;;;5050417;28;20498;-66
2023/06/04 07:32:06;;;;;;;57.40;2.77;;;;;;;;;;5051059;28;20817;-66
2023/06/04 07:34:33;;;;;;;57.30;2.50;;;;;;;;;;5051022;28;20448;-66
2023/06/04 07:37:01;;;;;;;57.40;2.67;;;;;;;;;;5050869;28;20456;-67
2023/06/04 07:39:28;;;;;;;57.30;2.67;;;;;;;;;;5049950;28;20451;-67
2023/06/04 07:41:56;;;;;;;57.20;2.10;;;;;;;;;;5050684;28;20984;-67
2023/06/04 07:44:23;;;;;;;57.20;2.40;;;;;;;;;;5051014;28;20453;-67
2023/06/04 07:46:50;;;;;;;56.87;2.00;;;;;;;;;;5050981;28;20828;-67
2023/06/04 07:49:17;;;;;;;57.10;2.00;;;;;;;;;;5050294;28;20653;-67
2023/06/04 07:51:46;;;;;;;56.90;2.33;;;;;;;;;;5051068;28;20557;-67
2023/06/04 07:54:13;;;;;;;57.40;2.40;;;;;;;;;;5050611;28;20495;-67
2023/06/04 07:56:41;;;;;;;57.97;2.50;;;;;;;;;;5050596;28;20463;-67
2023/06/04 07:59:09;;;;;;;57.20;2.43;;;;;;;;;;5050161;28;20451;-67
2023/06/04 08:01:36;;;;;;;56.87;2.10;;;;;;;;;;5050927;28;20452;-67
2023/06/04 08:04:03;;;;;;;57.60;2.83;;;;;;;;;;5050595;28;20456;-67
2023/06/04 08:06:30;;;;;;;57.50;2.93;;;;;;;;;;5050409;28;20452;-67
2023/06/04 08:08:58;;;;;;;57.00;2.10;;;;;;;;;;5052659;28;20484;-67
2023/06/04 08:11:25;;;;;;;56.87;2.10;;;;;;;;;;5054510;28;20452;-67
2023/06/04 08:13:52;;;;;;;56.70;2.20;;;;;;;;;;5054436;28;20810;-67
2023/06/04 08:16:20;;;;;;;56.87;2.20;;;;;;;;;;5054373;28;20448;-67
2023/06/04 08:18:47;;;;;;;57.10;2.33;;;;;;;;;;5053805;28;20446;-67
2023/06/04 08:21:16;;;;;;;57.80;2.70;;;;;;;;;;5054111;28;20456;-67
2023/06/04 08:23:44;;;;;;;56.37;2.10;;;;;;;;;;5054416;28;20452;-67
2023/06/04 08:26:11;;;;;;;56.77;2.20;;;;;;;;;;5054115;28;20456;-67
2023/06/04 08:28:39;;;;;;;57.07;2.10;;;;;;;;;;5053182;28;20476;-67
2023/06/04 08:31:06;;;;;;;57.10;2.40;;;;;;;;;;5054092;28;20497;-67
2023/06/04 08:33:35;;;;;;;56.67;2.10;;;;;;;;;;5054217;28;20468;-67
2023/06/04 08:36:02;;;;;;;56.57;2.20;;;;;;;;;;5053898;28;20443;-67
2023/06/04 08:38:29;;;;;;;56.77;2.30;;;;;;;;;;5053876;28;20789;-67
2023/06/04 08:40:58;;;;;;;56.73;2.40;;;;;;;;;;5054029;28;20452;-67
2023/06/04 08:43:26;;;;;;;57.00;2.40;;;;;;;;;;5053616;28;20476;-67
2023/06/04 08:46:01;;;;;;;57.07;2.50;;;;;;;;;;5053540;28;20455;-67
2023/06/04 08:48:30;;;;;;;57.90;2.57;;;;;;;;;;5053413;28;20483;-67
2023/06/04 08:50:58;;;;;;;57.70;2.27;;;;;;;;;;5053266;28;20448;-67
2023/06/04 08:53:26;;;;;;;56.97;2.40;;;;;;;;;;5053418;28;20475;-67
2023/06/04 08:55:54;;;;;;;57.00;2.30;;;;;;;;;;5053468;28;20471;-67
2023/06/04 08:58:22;;;;;;;57.00;2.40;;;;;;;;;;5053706;28;20543;-67
2023/06/04 09:00:50;;;;;;;57.10;2.13;;;;;;;;;;5052976;28;20448;-67
2023/06/04 09:03:19;;;;;;;57.40;2.10;;;;;;;;;;5053459;28;20494;-67
2023/06/04 09:05:49;;;;;;;56.83;2.20;;;;;;;;;;5053548;28;20467;-67
2023/06/04 09:08:18;;;;;;;56.63;1.90;;;;;;;;;;5053227;28;20487;-67
2023/06/04 09:10:46;;;;;;;57.10;1.93;;;;;;;;;;5052592;28;20452;-67
2023/06/04 09:13:15;;;;;;;56.67;2.50;;;;;;;;;;5053192;28;20472;-67
2023/06/04 09:15:43;;;;;;;57.50;2.10;;;;;;;;;;5053158;28;20963;-67
2023/06/04 09:18:10;;;;;;;56.90;2.10;;;;;;;;;;5053617;28;20455;-67
2023/06/04 09:20:37;;;;;;;57.10;2.10;;;;;;;;;;5051442;28;20460;-67
2023/06/04 09:23:13;;;;;;;57.07;2.20;;;;;;;;;;5053003;28;20472;-67
2023/06/04 09:25:44;;;;;;;56.63;2.30;;;;;;;;;;5052997;28;20448;-67
2023/06/04 09:28:11;;;;;;;56.63;2.60;;;;;;;;;;5053273;28;20511;-67
2023/06/04 09:30:38;;;;;;;57.00;2.20;;;;;;;;;;5052131;28;20456;-67
2023/06/04 09:33:09;;;;;;;57.10;2.10;;;;;;;;;;5052892;28;20494;-67
2023/06/04 09:35:36;;;;;;;56.47;2.33;;;;;;;;;;5052872;28;20458;-67
2023/06/04 09:38:03;;;;;;;57.97;2.47;;;;;;;;;;5052943;28;20451;-67
2023/06/04 09:40:37;;;;;;;57.10;2.20;;;;;;;;;;5051850;28;20937;-68
2023/06/04 09:43:05;;;;;;;57.07;2.30;;;;;;;;;;5052781;28;20817;-67
2023/06/04 09:45:35;;;;;;;57.17;2.30;;;;;;;;;;5052518;28;20460;-68
2023/06/04 09:48:02;;;;;;;57.13;2.40;;;;;;;;;;5052845;28;20940;-67
2023/06/04 09:50:31;;;;;;;57.60;2.30;;;;;;;;;;5052016;28;20452;-68
2023/06/04 09:52:59;;;;;;;57.20;2.33;;;;;;;;;;5052304;28;20479;-67
2023/06/04 09:55:26;;;;;;;56.90;2.10;;;;;;;;;;5052459;28;20455;-67
2023/06/04 09:57:54;;;;;;;57.60;3.07;;;;;;;;;;5052568;28;20448;-67
2023/06/04 10:00:23;;;;;;;56.43;2.00;;;;;;;;;;5051485;28;20979;-67
2023/06/04 10:02:51;;;;;;;56.17;2.20;;;;;;;;;;5052253;28;20844;-68
2023/06/04 10:05:21;;;;;;;56.63;2.60;;;;;;;;;;5052022;28;20463;-68
2023/06/04 10:07:50;;;;;;;56.90;2.40;;;;;;;;;;5052448;28;20971;-67
2023/06/04 10:10:18;;;;;;;57.10;2.73;;;;;;;;;;5051627;28;20476;-68
2023/06/04 10:12:46;;;;;;;56.37;2.10;;;;;;;;;;5052257;28;20836;-67
2023/06/04 10:15:15;;;;;;;56.80;2.00;;;;;;;;;;5052082;28;20829;-67
2023/06/04 10:17:43;;;;;;;56.87;2.03;;;;;;;;;;5051951;28;20448;-67
2023/06/04 10:20:11;;;;;;;56.90;2.10;;;;;;;;;;5051095;28;20449;-68
2023/06/04 10:22:39;;;;;;;56.87;2.20;;;;;;;;;;5051971;28;20972;-67
2023/06/04 10:25:06;;;;;;;56.70;2.10;;;;;;;;;;5051841;28;20448;-68
2023/06/04 10:27:35;;;;;;;56.57;2.13;;;;;;;;;;5051579;28;20452;-68
2023/06/04 10:30:02;;;;;;;56.47;2.00;;;;;;;;;;5051059;28;20895;-67
2023/06/04 10:32:30;;;;;;;56.20;1.80;;;;;;;;;;5051472;28;20475;-68
2023/06/04 10:34:59;;;;;;;56.03;2.07;;;;;;;;;;5052023;28;20491;-68
2023/06/04 10:37:29;;;;;;;56.87;2.10;;;;;;;;;;5051914;28;20448;-68
2023/06/04 10:39:57;;;;;;;55.90;1.87;;;;;;;;;;5051409;28;20448;-68
2023/06/04 10:42:24;;;;;;;55.90;2.40;;;;;;;;;;5051427;28;20475;-65
2023/06/04 10:44:53;;;;;;;55.87;2.10;;;;;;;;;;5051671;28;20448;-66
2023/06/04 10:47:20;;;;;;;56.10;2.47;;;;;;;;;;5051300;28;20970;-66
2023/06/04 10:49:48;;;;;;;55.67;1.90;;;;;;;;;;5050848;28;20848;-66
2023/06/04 10:52:16;;;;;;;55.50;1.90;;;;;;;;;;5051226;28;20873;-66
2023/06/04 10:54:43;;;;;;;55.50;1.80;;;;;;;;;;5051447;28;20446;-66
2023/06/04 10:57:15;;;;;;;55.70;2.17;;;;;;;;;;5051035;28;20957;-66
2023/06/04 10:59:43;;;;;;;56.17;2.47;;;;;;;;;;5050561;28;20480;-66
2023/06/04 11:02:10;;;;;;;55.67;2.07;;;;;;;;;;5051542;28;20468;-66
2023/06/04 11:04:38;;;;;;;55.43;2.10;;;;;;;;;;5051291;28;20555;-66
2023/06/04 11:07:08;;;;;;;55.90;2.10;;;;;;;;;;5051198;28;20444;-66
2023/06/04 11:09:37;;;;;;;55.50;1.97;;;;;;;;;;5050550;28;20845;-66
2023/06/04 11:12:06;;;;;;;55.47;1.87;;;;;;;;;;5050924;28;20468;-66
2023/06/04 11:14:33;;;;;;;55.90;2.00;;;;;;;;;;5051276;28;20454;-66
2023/06/04 11:17:11;;;;;;;55.47;1.73;;;;;;;;;;5051210;28;20544;-66
2023/06/04 11:19:38;;;;;;;55.60;2.37;;;;;;;;;;5050352;28;20428;-66
2023/06/04 11:22:05;;;;;;;55.50;1.97;;;;;;;;;;5051188;28;21072;-66
2023/06/04 11:24:33;;;;;;;55.60;1.80;;;;;;;;;;5050839;28;20448;-66
2023/06/04 11:27:02;;;;;;;55.43;2.10;;;;;;;;;;5051125;28;20543;-66
2023/06/04 11:29:30;;;;;;;55.47;1.73;;;;;;;;;;5050156;28;20889;-66
2023/06/04 11:31:58;;;;;;;55.40;1.87;;;;;;;;;;5050796;28;20468;-66
2023/06/04 11:34:25;;;;;;;55.80;2.10;;;;;;;;;;5050924;28;20455;-66
2023/06/04 11:36:53;;;;;;;55.57;2.17;;;;;;;;;;5051192;28;20452;-66
2023/06/04 11:39:20;;;;;;;55.30;2.13;;;;;;;;;;5050198;28;20451;-66
2023/06/04 11:41:48;;;;;;;55.47;2.20;;;;;;;;;;5050921;28;20472;-66
2023/06/04 11:44:19;;;;;;;55.33;1.97;;;;;;;;;;5054408;28;20448;-66
2023/06/04 11:46:48;;;;;;;55.77;2.67;;;;;;;;;;5054871;28;20957;-66
2023/06/04 11:49:16;;;;;;;55.60;2.10;;;;;;;;;;5054148;28;20526;-66
2023/06/04 11:51:46;;;;;;;55.80;2.13;;;;;;;;;;5054188;28;20472;-66
2023/06/04 11:54:14;;;;;;;55.17;2.03;;;;;;;;;;5055247;28;20440;-66
2023/06/04 11:56:41;;;;;;;55.57;2.03;;;;;;;;;;5054576;28;20459;-66
2023/06/04 11:59:10;;;;;;;55.60;2.23;;;;;;;;;;5054052;28;20835;-66
2023/06/04 12:01:38;;;;;;;55.60;2.07;;;;;;;;;;5054517;28;20448;-67
2023/06/04 12:04:13;;;;;;;55.47;2.10;;;;;;;;;;5054469;28;20460;-67
2023/06/04 12:06:40;;;;;;;55.23;2.00;;;;;;;;;;5054415;28;20844;-67
2023/06/04 12:09:07;;;;;;;55.70;2.37;;;;;;;;;;5053840;28;20440;-67
2023/06/04 12:11:35;;;;;;;56.00;2.60;;;;;;;;;;5054348;28;20448;-67
2023/06/04 12:14:06;;;;;;;55.37;1.90;;;;;;;;;;5054720;28;20480;-67
2023/06/04 12:16:33;;;;;;;55.27;1.80;;;;;;;;;;5054305;28;20444;-67
2023/06/04 12:19:11;;;;;;;55.10;2.13;;;;;;;;;;5053688;28;20484;-67
2023/06/04 12:21:39;;;;;;;55.37;1.93;;;;;;;;;;5054594;28;20444;-67
2023/06/04 12:24:10;;;;;;;55.50;1.80;;;;;;;;;;5054425;28;20447;-67
2023/06/04 12:26:40;;;;;;;55.80;2.30;;;;;;;;;;5053944;28;20452;-67
2023/06/04 12:29:11;;;;;;;55.27;1.80;;;;;;;;;;5053306;28;20451;-67
2023/06/04 12:31:38;;;;;;;55.30;1.97;;;;;;;;;;5054216;28;20459;-67
2023/06/04 12:34:06;;;;;;;55.00;1.80;;;;;;;;;;5054167;28;20800;-67
2023/06/04 12:36:34;;;;;;;55.13;2.13;;;;;;;;;;5053998;28;20478;-67
2023/06/04 12:39:02;;;;;;;55.47;2.03;;;;;;;;;;5053000;28;20448;-67
2023/06/04 12:41:30;;;;;;;55.27;2.00;;;;;;;;;;5053664;28;20452;-67
2023/06/04 12:43:57;;;;;;;55.20;1.97;;;;;;;;;;5053680;28;20452;-67
2023/06/04 12:46:24;;;;;;;55.00;1.80;;;;;;;;;;5053909;28;20444;-67
2023/06/04 12:48:52;;;;;;;55.30;1.70;;;;;;;;;;5052883;28;20968;-67
2023/06/04 12:51:20;;;;;;;55.20;2.20;;;;;;;;;;5053734;28;20462;-67
2023/06/04 12:53:49;;;;;;;55.20;1.83;;;;;;;;;;5053218;28;20452;-67
2023/06/04 12:56:16;;;;;;;54.87;1.73;;;;;;;;;;5052577;28;20492;-67
2023/06/04 12:58:43;;;;;;;55.30;2.10;;;;;;;;;;5053034;28;20822;-67
2023/06/04 13:01:11;;;;;;;55.30;2.20;;;;;;;;;;5053346;28;21012;-67
2023/06/04 13:03:38;;;;;;;55.17;1.83;;;;;;;;;;5053531;28;20533;-67
2023/06/04 13:06:05;;;;;;;55.87;2.40;;;;;;;;;;5053574;28;20506;-67
2023/06/04 13:08:33;;;;;;;55.40;2.23;;;;;;;;;;5052861;28;20483;-67
2023/06/04 13:11:02;;;;;;;54.87;1.93;;;;;;;;;;5053188;28;20463;-67
2023/06/04 13:13:29;;;;;;;55.07;1.63;;;;;;;;;;5053309;28;20468;-67
2023/06/04 13:15:56;;;;;;;55.43;2.00;;;;;;;;;;5053349;28;20494;-67
2023/06/04 13:18:24;;;;;;;55.10;1.70;;;;;;;;;;5053300;28;20458;-67
2023/06/04 13:20:51;;;;;;;55.40;1.97;;;;;;;;;;5052328;28;20506;-67
2023/06/04 13:23:18;;;;;;;55.10;1.70;;;;;;;;;;5052775;28;20992;-67
2023/06/04 13:25:45;;;;;;;55.20;2.00;;;;;;;;;;5053438;28;20450;-67
2023/06/04 13:28:14;;;;;;;55.07;1.83;;;;;;;;;;5052939;28;20456;-67
2023/06/04 13:30:41;;;;;;;55.40;1.90;;;;;;;;;;5052327;28;20467;-66
2023/06/04 13:33:08;;;;;;;55.20;2.00;;;;;;;;;;5052723;28;20479;-67
2023/06/04 13:35:35;;;;;;;54.97;1.70;;;;;;;;;;5052726;28;20454;-67
2023/06/04 13:38:03;;;;;;;58.00;2.00;;;;;;;;;;5052697;28;20452;-67
2023/06/04 13:40:30;;;;;;;55.37;2.20;;;;;;;;;;5052496;28;20480;-67
2023/06/04 13:42:58;;;;;;;55.20;1.80;;;;;;;;;;5052946;28;20464;-67
2023/06/04 13:45:26;;;;;;;55.37;1.87;;;;;;;;;;5052623;28;20448;-67
2023/06/04 13:47:53;;;;;;;55.60;2.10;;;;;;;;;;5052833;28;20858;-66
2023/06/04 13:50:20;;;;;;;55.37;1.80;;;;;;;;;;5051962;28;20440;-67
2023/06/04 13:52:47;;;;;;;55.97;2.07;;;;;;;;;;5052672;28;20490;-67
2023/06/04 13:55:15;;;;;;;55.10;1.70;;;;;;;;;;5052659;28;20452;-66
2023/06/04 13:57:42;;;;;;;55.47;2.03;;;;;;;;;;5052186;28;20907;-66
2023/06/04 14:00:09;;;;;;;55.70;2.30;;;;;;;;;;5051753;28;20488;-67
2023/06/04 14:02:38;;;;;;;55.50;2.20;;;;;;;;;;5052459;28;20472;-67
2023/06/04 14:05:06;;;;;;;55.50;2.37;;;;;;;;;;5052229;28;20462;-66
2023/06/04 14:07:33;;;;;;;55.90;2.17;;;;;;;;;;5052071;28;20441;-67
2023/06/04 14:10:00;;;;;;;55.60;1.80;;;;;;;;;;5051673;28;20551;-67
2023/06/04 14:12:27;;;;;;;55.80;2.20;;;;;;;;;;5052080;28;20479;-67
2023/06/04 14:14:54;;;;;;;55.37;2.20;;;;;;;;;;5052050;28;20819;-67
2023/06/04 14:17:21;;;;;;;55.30;1.80;;;;;;;;;;5051835;28;20444;-67
2023/06/04 14:19:50;;;;;;;54.93;1.80;;;;;;;;;;5050943;28;20484;-67
2023/06/04 14:22:17;;;;;;;55.60;2.00;;;;;;;;;;5052012;28;20468;-67
2023/06/04 14:24:44;;;;;;;55.80;2.20;;;;;;;;;;5051906;28;20809;-67
2023/06/04 14:27:11;;;;;;;55.77;1.93;;;;;;;;;;5051822;28;20448;-67
2023/06/04 14:29:38;;;;;;;55.40;1.80;;;;;;;;;;5050926;28;20483;-67
2023/06/04 14:32:06;;;;;;;55.40;1.73;;;;;;;;;;5051390;28;20469;-67
2023/06/04 14:34:33;;;;;;;55.57;1.83;;;;;;;;;;5051760;28;20456;-67
2023/06/04 14:37:01;;;;;;;55.37;2.00;;;;;;;;;;5051839;28;20836;-67
2023/06/04 14:39:29;;;;;;;55.40;1.93;;;;;;;;;;5051075;28;20844;-67
2023/06/04 14:41:56;;;;;;;55.17;1.83;;;;;;;;;;5051415;28;20467;-67